Time;durP1;ratioP1;P1;durP2;ratioP2;P2;SDS_P1;SDS_P2;PMS_P1;PMS_P2;Temp;Humidity;BMP_temperature;BMP_pressure;BME280_temperature;BME280_humidity;BME280_pressure;Samples;Min_cycle;Max_cycle;Signal;HPM_P1;HPM_P2
2022/04/13 00:04:52;;;;;;;13.77;6.68;;;;;;;;;;10445763;28;20060;-74
2022/04/13 00:09:53;;;;;;;13.73;7.30;;;;;;;;;;10429203;28;20013;-72
2022/04/13 00:14:54;;;;;;;9.27;7.18;;;;;;;;;;10444626;28;20024;-70
2022/04/13 00:19:54;;;;;;;13.85;8.38;;;;;;;;;;10428500;28;20496;-73
2022/04/13 00:24:54;;;;;;;10.40;6.22;;;;;;;;;;10444547;28;20033;-72
2022/04/13 00:29:55;;;;;;;9.50;5.67;;;;;;;;;;10426591;28;20020;-71
2022/04/13 00:34:57;;;;;;;8.77;4.97;;;;;;;;;;10427017;28;20025;-71
2022/04/13 00:39:57;;;;;;;8.48;4.53;;;;;;;;;;10426246;28;20017;-74
2022/04/13 00:44:57;;;;;;;5.63;3.83;;;;;;;;;;10443176;28;20029;-70
2022/04/13 00:49:58;;;;;;;7.97;4.50;;;;;;;;;;10425863;28;20532;-72
2022/04/13 00:54:59;;;;;;;6.00;3.90;;;;;;;;;;10425929;28;20030;-73
2022/04/13 01:00:00;;;;;;;8.57;3.90;;;;;;;;;;10423307;28;20049;-75
2022/04/13 01:05:02;;;;;;;11.07;4.13;;;;;;;;;;10425847;28;20087;-70
2022/04/13 01:10:06;;;;;;;8.05;4.63;;;;;;;;;;10425637;28;20021;-72
2022/04/13 01:15:07;;;;;;;5.45;4.20;;;;;;;;;;10425053;28;20017;-73
2022/04/13 01:20:07;;;;;;;8.60;5.25;;;;;;;;;;10424079;28;20404;-72
2022/04/13 01:25:08;;;;;;;5.72;4.60;;;;;;;;;;10425036;28;20013;-70
2022/04/13 01:30:09;;;;;;;7.25;4.43;;;;;;;;;;10425596;28;20112;-71
2022/04/13 01:35:09;;;;;;;6.03;4.22;;;;;;;;;;10426558;28;20416;-75
2022/04/13 01:40:10;;;;;;;12.73;5.07;;;;;;;;;;10426222;28;20021;-69
2022/04/13 01:45:10;;;;;;;7.68;5.35;;;;;;;;;;10400720;28;20044;-69
2022/04/13 01:50:14;;;;;;;6.80;5.70;;;;;;;;;;10414601;28;20711;-70
2022/04/13 01:55:14;;;;;;;5.70;4.88;;;;;;;;;;10403596;28;20026;-76
2022/04/13 02:00:14;;;;;;;11.43;5.80;;;;;;;;;;10446336;28;20045;-70
2022/04/13 02:05:15;;;;;;;13.17;5.77;;;;;;;;;;10434010;28;20040;-71
2022/04/13 02:10:16;;;;;;;11.88;5.07;;;;;;;;;;10450615;28;20127;-70
2022/04/13 02:15:16;;;;;;;13.95;5.55;;;;;;;;;;10450669;28;20071;-72
2022/04/13 02:20:17;;;;;;;12.27;7.37;;;;;;;;;;10450892;28;20048;-69
2022/04/13 02:25:17;;;;;;;14.53;7.33;;;;;;;;;;10411444;28;20515;-75
2022/04/13 02:30:17;;;;;;;14.80;6.63;;;;;;;;;;10408533;28;20056;-72
2022/04/13 02:35:17;;;;;;;17.20;5.90;;;;;;;;;;10409909;28;20033;-70
2022/04/13 02:40:19;;;;;;;16.63;7.03;;;;;;;;;;10415968;28;20025;-79
2022/04/13 02:45:20;;;;;;;24.50;8.63;;;;;;;;;;10413225;28;20037;-70
2022/04/13 02:50:20;;;;;;;27.17;8.37;;;;;;;;;;10425700;28;20033;-75
2022/04/13 02:55:20;;;;;;;18.10;6.85;;;;;;;;;;10427228;28;20115;-72
2022/04/13 03:00:21;;;;;;;18.30;7.95;;;;;;;;;;10426160;28;20045;-70
2022/04/13 03:05:21;;;;;;;20.02;9.98;;;;;;;;;;10428830;28;20066;-71
2022/04/13 03:10:21;;;;;;;25.83;9.02;;;;;;;;;;10418564;28;20013;-74
2022/04/13 03:15:23;;;;;;;28.70;9.80;;;;;;;;;;10417879;28;20078;-75
2022/04/13 03:20:23;;;;;;;31.80;8.55;;;;;;;;;;10417132;28;20039;-71
2022/04/13 03:25:23;;;;;;;21.95;11.48;;;;;;;;;;10418126;28;20035;-73
2022/04/13 03:30:24;;;;;;;23.77;9.60;;;;;;;;;;10427957;28;20074;-70
2022/04/13 03:35:24;;;;;;;13.57;10.75;;;;;;;;;;10426713;28;20363;-71
2022/04/13 03:40:26;;;;;;;15.20;9.75;;;;;;;;;;10425357;28;20029;-75
2022/04/13 03:45:26;;;;;;;28.92;10.95;;;;;;;;;;10403989;28;20033;-70
2022/04/13 03:50:26;;;;;;;33.70;12.75;;;;;;;;;;10409681;28;20021;-72
2022/04/13 03:55:26;;;;;;;26.38;12.38;;;;;;;;;;10409005;28;20124;-71
2022/04/13 04:00:27;;;;;;;29.70;13.67;;;;;;;;;;10414492;28;20106;-72
2022/04/13 04:05:27;;;;;;;35.50;15.17;;;;;;;;;;10418880;28;20068;-74
2022/04/13 04:10:28;;;;;;;35.42;15.18;;;;;;;;;;10402301;28;20267;-73
2022/04/13 04:15:28;;;;;;;25.27;11.33;;;;;;;;;;10441272;28;20087;-76
2022/04/13 04:20:28;;;;;;;11.55;8.25;;;;;;;;;;10426008;28;20033;-76
2022/04/13 04:25:29;;;;;;;14.15;8.82;;;;;;;;;;10426852;28;20025;-72
2022/04/13 04:30:31;;;;;;;9.57;7.82;;;;;;;;;;10424660;28;20145;-77
2022/04/13 04:35:32;;;;;;;10.40;6.28;;;;;;;;;;10403502;28;20029;-73
2022/04/13 04:40:33;;;;;;;11.43;7.30;;;;;;;;;;10407331;28;20147;-73
2022/04/13 04:45:33;;;;;;;19.58;9.80;;;;;;;;;;10436474;28;20120;-73
2022/04/13 04:50:35;;;;;;;20.75;7.50;;;;;;;;;;10386054;28;20022;-77
2022/04/13 04:55:35;;;;;;;15.15;6.55;;;;;;;;;;10402515;28;20519;-73
2022/04/13 05:00:36;;;;;;;10.10;5.45;;;;;;;;;;10401874;28;20060;-71
2022/04/13 05:05:39;;;;;;;14.05;5.80;;;;;;;;;;10406486;28;20607;-75
2022/04/13 05:10:41;;;;;;;12.52;4.50;;;;;;;;;;10443731;28;20056;-73
2022/04/13 05:15:41;;;;;;;9.95;5.03;;;;;;;;;;10434206;28;20028;-74
2022/04/13 05:20:42;;;;;;;14.63;5.55;;;;;;;;;;10423278;28;20037;-74
2022/04/13 05:25:42;;;;;;;9.80;5.10;;;;;;;;;;10441856;28;20146;-73
2022/04/13 05:30:42;;;;;;;12.68;5.25;;;;;;;;;;10443733;28;20674;-72
2022/04/13 05:35:45;;;;;;;16.23;8.25;;;;;;;;;;10442556;28;20416;-71
2022/04/13 05:40:45;;;;;;;18.70;10.13;;;;;;;;;;10443026;28;20069;-73
2022/04/13 05:45:46;;;;;;;21.35;9.18;;;;;;;;;;10425267;28;20480;-76
2022/04/13 05:50:46;;;;;;;17.23;9.30;;;;;;;;;;10442635;28;20511;-73
2022/04/13 05:55:46;;;;;;;26.45;11.35;;;;;;;;;;10441658;28;20275;-72
2022/04/13 06:00:46;;;;;;;20.60;11.23;;;;;;;;;;10441042;28;20045;-73
2022/04/13 06:05:47;;;;;;;22.70;8.50;;;;;;;;;;10441432;28;20043;-77
2022/04/13 06:10:47;;;;;;;15.20;9.30;;;;;;;;;;10441707;28;20021;-74
2022/04/13 06:15:47;;;;;;;20.83;9.07;;;;;;;;;;10424407;28;20027;-72
2022/04/13 06:20:47;;;;;;;13.32;8.85;;;;;;;;;;10424993;28;20017;-72
2022/04/13 06:25:48;;;;;;;16.40;8.73;;;;;;;;;;10441564;28;20025;-72
2022/04/13 06:30:48;;;;;;;16.70;7.97;;;;;;;;;;10424684;28;20048;-72
2022/04/13 06:35:48;;;;;;;18.60;7.33;;;;;;;;;;10441037;28;20035;-72
2022/04/13 06:40:49;;;;;;;33.92;17.52;;;;;;;;;;10442303;28;20459;-73
2022/04/13 06:45:49;;;;;;;16.38;6.65;;;;;;;;;;10446850;28;20047;-73
2022/04/13 06:50:49;;;;;;;11.60;5.72;;;;;;;;;;10431971;28;20028;-73
2022/04/13 06:55:50;;;;;;;9.93;5.43;;;;;;;;;;10432316;28;20032;-74
2022/04/13 07:00:50;;;;;;;9.40;5.95;;;;;;;;;;10449211;28;20051;-76
2022/04/13 07:05:50;;;;;;;11.88;5.78;;;;;;;;;;10450441;28;20033;-73
2022/04/13 07:10:51;;;;;;;10.00;6.13;;;;;;;;;;10449705;28;20044;-72
2022/04/13 07:15:52;;;;;;;13.00;5.43;;;;;;;;;;10449133;28;20028;-77
2022/04/13 07:20:53;;;;;;;11.77;6.13;;;;;;;;;;10431017;28;20500;-73
2022/04/13 07:25:53;;;;;;;11.50;6.00;;;;;;;;;;10430765;28;20033;-73
2022/04/13 07:30:53;;;;;;;12.67;6.07;;;;;;;;;;10447808;28;20155;-75
2022/04/13 07:35:53;;;;;;;10.80;5.10;;;;;;;;;;10430775;28;20025;-78
2022/04/13 07:40:54;;;;;;;11.77;5.30;;;;;;;;;;10430065;28;20021;-73
2022/04/13 07:45:54;;;;;;;18.98;5.82;;;;;;;;;;10446651;28;20109;-75
2022/04/13 07:50:55;;;;;;;12.68;5.50;;;;;;;;;;10445382;28;20025;-73
2022/04/13 07:55:55;;;;;;;11.90;5.47;;;;;;;;;;10445623;28;20024;-73
2022/04/13 08:00:56;;;;;;;14.27;5.77;;;;;;;;;;10445628;28;20055;-73
2022/04/13 08:05:56;;;;;;;13.67;5.30;;;;;;;;;;10445348;28;20547;-75
2022/04/13 08:10:56;;;;;;;12.17;5.17;;;;;;;;;;10429104;28;20543;-73
2022/04/13 08:15:56;;;;;;;7.63;3.77;;;;;;;;;;10444391;28;20102;-76
2022/04/13 08:20:57;;;;;;;9.18;4.30;;;;;;;;;;10445867;28;20024;-73
2022/04/13 08:25:57;;;;;;;7.20;4.13;;;;;;;;;;10446309;28;20428;-72
2022/04/13 08:30:57;;;;;;;11.88;4.65;;;;;;;;;;10445684;28;20527;-72
2022/04/13 08:35:58;;;;;;;7.80;3.47;;;;;;;;;;10427820;28;20392;-75
2022/04/13 08:41:02;;;;;;;4.60;3.13;;;;;;;;;;10445475;28;20047;-71
2022/04/13 08:46:05;;;;;;;3.22;1.77;;;;;;;;;;10427201;28;20036;-74
2022/04/13 08:51:07;;;;;;;4.82;2.55;;;;;;;;;;10427646;28;20574;-74
2022/04/13 08:56:09;;;;;;;3.60;2.33;;;;;;;;;;10403661;28;20056;-71
2022/04/13 09:01:13;;;;;;;4.78;3.30;;;;;;;;;;10403525;28;20063;-73
2022/04/13 09:06:14;;;;;;;7.30;3.08;;;;;;;;;;10368628;28;20155;-73
2022/04/13 09:11:16;;;;;;;7.00;3.05;;;;;;;;;;10404084;28;20026;-73
2022/04/13 09:16:16;;;;;;;5.72;2.83;;;;;;;;;;10401419;28;20030;-73
2022/04/13 09:21:20;;;;;;;8.43;2.97;;;;;;;;;;10384705;28;20413;-72
2022/04/13 09:26:22;;;;;;;12.02;2.80;;;;;;;;;;10385266;28;20290;-74
2022/04/13 09:31:22;;;;;;;6.50;3.80;;;;;;;;;;10400690;28;20112;-72
2022/04/13 09:36:22;;;;;;;6.15;3.10;;;;;;;;;;10402262;28;20028;-73
2022/04/13 09:41:38;;;;;;;6.33;3.37;;;;;;;;;;10384807;28;20033;-76
2022/04/13 09:46:38;;;;;;;6.15;3.00;;;;;;;;;;10402185;28;20029;-72
2022/04/13 09:51:40;;;;;;;5.93;2.73;;;;;;;;;;10400929;28;20033;-73
2022/04/13 09:56:44;;;;;;;5.38;2.50;;;;;;;;;;10384630;28;20401;-73
2022/04/13 10:01:47;;;;;;;4.63;2.50;;;;;;;;;;10402504;28;20056;-76
2022/04/13 10:06:48;;;;;;;6.38;2.63;;;;;;;;;;10399934;28;20549;-73
2022/04/13 10:11:59;;;;;;;3.70;2.35;;;;;;;;;;10400743;28;20032;-72
2022/04/13 10:17:06;;;;;;;7.93;2.50;;;;;;;;;;10392129;28;20029;-72
2022/04/13 10:22:06;;;;;;;2.97;2.00;;;;;;;;;;10392825;28;20037;-73
2022/04/13 10:27:12;;;;;;;5.23;2.50;;;;;;;;;;10409573;28;20421;-72
2022/04/13 10:32:13;;;;;;;9.90;4.40;;;;;;;;;;10408246;28;20264;-72
2022/04/13 10:37:14;;;;;;;4.30;2.30;;;;;;;;;;10407731;28;20029;-72
2022/04/13 10:42:15;;;;;;;7.28;2.80;;;;;;;;;;10408644;28;20026;-72
2022/04/13 10:47:24;;;;;;;4.93;2.50;;;;;;;;;;10391051;28;20021;-73
2022/04/13 10:52:24;;;;;;;4.28;1.85;;;;;;;;;;10431989;28;20114;-71
2022/04/13 10:57:25;;;;;;;2.47;1.38;;;;;;;;;;10448326;28;20052;-74
2022/04/13 11:02:32;;;;;;;7.03;1.95;;;;;;;;;;10447396;28;20454;-72
2022/04/13 11:07:33;;;;;;;5.47;2.47;;;;;;;;;;10447754;28;20023;-73
2022/04/13 11:12:33;;;;;;;4.53;1.70;;;;;;;;;;10430781;28;20368;-73
2022/04/13 11:17:40;;;;;;;9.83;2.60;;;;;;;;;;10430770;28;20025;-72
2022/04/13 11:22:40;;;;;;;4.33;2.47;;;;;;;;;;10447140;28;20033;-71
2022/04/13 11:27:53;;;;;;;5.50;2.70;;;;;;;;;;10445823;28;20782;-72
2022/04/13 11:32:53;;;;;;;6.85;3.53;;;;;;;;;;10447889;28;20017;-73
2022/04/13 11:38:04;;;;;;;6.50;3.60;;;;;;;;;;10446946;28;20017;-78
2022/04/13 11:43:05;;;;;;;6.22;3.33;;;;;;;;;;10446154;28;20484;-72
2022/04/13 11:48:07;;;;;;;5.53;3.30;;;;;;;;;;10446977;28;20109;-73
2022/04/13 11:53:12;;;;;;;6.75;2.90;;;;;;;;;;10445988;28;20121;-73
2022/04/13 11:58:13;;;;;;;3.78;2.58;;;;;;;;;;10429773;28;20663;-72
2022/04/13 12:03:14;;;;;;;7.63;2.75;;;;;;;;;;10445768;28;20036;-73
2022/04/13 12:08:16;;;;;;;4.90;2.35;;;;;;;;;;10445958;28;20025;-72
2022/04/13 12:13:16;;;;;;;4.45;2.70;;;;;;;;;;10445373;28;20026;-73
2022/04/13 12:18:17;;;;;;;8.00;3.50;;;;;;;;;;10444614;28;20029;-72
2022/04/13 12:23:23;;;;;;;3.90;3.17;;;;;;;;;;10432386;28;20065;-72
2022/04/13 12:28:24;;;;;;;4.85;3.22;;;;;;;;;;10424141;28;20028;-72
2022/04/13 12:33:25;;;;;;;4.90;2.53;;;;;;;;;;10426204;28;20628;-73
2022/04/13 12:38:34;;;;;;;5.45;3.05;;;;;;;;;;10422800;28;20119;-76
2022/04/13 12:43:35;;;;;;;5.72;3.10;;;;;;;;;;10421175;28;20099;-78
2022/04/13 12:48:37;;;;;;;4.55;2.30;;;;;;;;;;10418593;28;20076;-78
2022/04/13 12:53:40;;;;;;;4.10;3.05;;;;;;;;;;10423238;28;20595;-77
2022/04/13 12:58:41;;;;;;;11.10;4.18;;;;;;;;;;10418293;28;20103;-73
2022/04/13 13:03:41;;;;;;;5.10;2.38;;;;;;;;;;10424551;28;20363;-76
2022/04/13 13:08:52;;;;;;;4.40;2.30;;;;;;;;;;10423276;28;20448;-70
2022/04/13 13:13:52;;;;;;;9.80;2.75;;;;;;;;;;10424470;28;20479;-71
2022/04/13 13:19:09;;;;;;;6.00;2.08;;;;;;;;;;10422066;28;20083;-71
2022/04/13 13:24:09;;;;;;;3.83;1.67;;;;;;;;;;10426620;28;20104;-73
2022/04/13 13:29:09;;;;;;;3.33;2.00;;;;;;;;;;10420445;28;20040;-75
2022/04/13 13:34:09;;;;;;;2.92;1.98;;;;;;;;;;10422095;28;20052;-70
2022/04/13 13:39:11;;;;;;;3.60;2.22;;;;;;;;;;10410771;28;20029;-72
2022/04/13 13:44:21;;;;;;;2.72;1.95;;;;;;;;;;10422247;28;20595;-70
2022/04/13 13:49:22;;;;;;;4.13;2.30;;;;;;;;;;10395024;28;20025;-70
2022/04/13 13:54:22;;;;;;;1.83;1.60;;;;;;;;;;10398015;28;20041;-74
2022/04/13 13:59:22;;;;;;;4.13;2.53;;;;;;;;;;10434090;28;20436;-72
2022/04/13 14:04:23;;;;;;;3.13;1.30;;;;;;;;;;10427416;28;20120;-72
2022/04/13 14:09:23;;;;;;;3.07;1.87;;;;;;;;;;10428050;28;20025;-72
2022/04/13 14:14:23;;;;;;;3.87;1.70;;;;;;;;;;10428910;28;20148;-72
2022/04/13 14:19:24;;;;;;;9.70;2.10;;;;;;;;;;10420426;28;20263;-73
2022/04/13 14:24:24;;;;;;;2.88;1.77;;;;;;;;;;10411078;28;20564;-71
2022/04/13 14:29:24;;;;;;;5.75;1.67;;;;;;;;;;10418157;28;20055;-74
2022/04/13 14:34:24;;;;;;;2.75;1.90;;;;;;;;;;10430714;28;20025;-74
2022/04/13 14:39:25;;;;;;;8.57;1.80;;;;;;;;;;10419257;28;20127;-70
2022/04/13 14:44:25;;;;;;;7.25;2.45;;;;;;;;;;10431720;28;20024;-72
2022/04/13 14:49:25;;;;;;;4.10;2.00;;;;;;;;;;10450025;28;20039;-75
2022/04/13 14:54:26;;;;;;;3.22;1.50;;;;;;;;;;10447573;28;20491;-72
2022/04/13 14:59:26;;;;;;;2.83;1.50;;;;;;;;;;10448875;28;20045;-74
2022/04/13 15:04:26;;;;;;;2.40;1.50;;;;;;;;;;10435016;28;20292;-71
2022/04/13 15:09:27;;;;;;;4.35;2.80;;;;;;;;;;10442961;28;20021;-71
2022/04/13 15:14:28;;;;;;;4.97;1.83;;;;;;;;;;10447426;28;20025;-72
2022/04/13 15:19:29;;;;;;;4.03;1.90;;;;;;;;;;10448320;28;20025;-75
2022/04/13 15:24:29;;;;;;;2.17;1.55;;;;;;;;;;10430337;28;20025;-75
2022/04/13 15:29:29;;;;;;;3.13;1.43;;;;;;;;;;10419660;28;20025;-71
2022/04/13 15:34:30;;;;;;;2.35;1.88;;;;;;;;;;10419488;28;20390;-72
2022/04/13 15:39:30;;;;;;;4.57;1.95;;;;;;;;;;10446372;28;20029;-73
2022/04/13 15:44:31;;;;;;;2.83;1.83;;;;;;;;;;10445420;28;20087;-75
2022/04/13 15:49:31;;;;;;;5.80;2.50;;;;;;;;;;10446132;28;20056;-74
2022/04/13 15:54:31;;;;;;;5.13;2.30;;;;;;;;;;10444724;28;20021;-71
2022/04/13 15:59:32;;;;;;;5.50;2.37;;;;;;;;;;10405382;28;20091;-74
2022/04/13 16:04:33;;;;;;;5.97;2.55;;;;;;;;;;10387938;28;20040;-74
2022/04/13 16:09:33;;;;;;;11.50;2.65;;;;;;;;;;10405915;28;20407;-72
2022/04/13 16:14:33;;;;;;;3.97;2.73;;;;;;;;;;10423988;28;20032;-72
2022/04/13 16:19:34;;;;;;;3.70;1.87;;;;;;;;;;10403689;28;20021;-72
2022/04/13 16:24:34;;;;;;;6.93;3.30;;;;;;;;;;10443245;28;20090;-75
2022/04/13 16:29:34;;;;;;;6.15;3.28;;;;;;;;;;10444533;28;20021;-74
2022/04/13 16:34:35;;;;;;;7.45;2.88;;;;;;;;;;10427563;28;20025;-75
2022/04/13 16:39:36;;;;;;;14.23;2.92;;;;;;;;;;10443717;28;20100;-77
2022/04/13 16:44:36;;;;;;;3.53;2.42;;;;;;;;;;10403320;28;20127;-75
2022/04/13 16:49:37;;;;;;;6.47;2.63;;;;;;;;;;10412750;28;20025;-74
2022/04/13 16:54:37;;;;;;;7.32;2.70;;;;;;;;;;10414164;28;20392;-75
2022/04/13 16:59:37;;;;;;;5.35;3.38;;;;;;;;;;10428312;28;20148;-70
2022/04/13 17:04:38;;;;;;;6.27;3.00;;;;;;;;;;10422273;28;20033;-74
2022/04/13 17:09:38;;;;;;;4.40;2.97;;;;;;;;;;10421600;28;20276;-73
2022/04/13 17:14:38;;;;;;;5.75;3.20;;;;;;;;;;10422284;28;20032;-70
2022/04/13 17:19:39;;;;;;;4.80;3.15;;;;;;;;;;10425350;28;20028;-71
2022/04/13 17:24:42;;;;;;;6.68;3.05;;;;;;;;;;10399353;28;20021;-71
2022/04/13 17:29:42;;;;;;;7.47;3.15;;;;;;;;;;10415310;28;20100;-74
2022/04/13 17:34:42;;;;;;;8.57;3.78;;;;;;;;;;10421539;28;20025;-71
2022/04/13 17:39:42;;;;;;;6.35;3.10;;;;;;;;;;10435080;28;20021;-75
2022/04/13 17:44:43;;;;;;;6.30;3.20;;;;;;;;;;10390689;28;20120;-75
2022/04/13 17:49:43;;;;;;;6.63;4.20;;;;;;;;;;10439922;28;20076;-72
2022/04/13 17:54:44;;;;;;;3.70;2.60;;;;;;;;;;10408669;28;20120;-71
2022/04/13 17:59:44;;;;;;;11.75;4.57;;;;;;;;;;10399267;28;20045;-71
2022/04/13 18:04:45;;;;;;;7.27;3.27;;;;;;;;;;10419696;28;20041;-70
2022/04/13 18:09:45;;;;;;;20.80;5.70;;;;;;;;;;10417917;28;20567;-70
2022/04/13 18:14:45;;;;;;;10.02;4.70;;;;;;;;;;10410504;28;20109;-70
2022/04/13 18:19:45;;;;;;;18.38;6.93;;;;;;;;;;10416319;28;20029;-70
2022/04/13 18:24:46;;;;;;;13.33;7.17;;;;;;;;;;10419310;28;20037;-69
2022/04/13 18:29:48;;;;;;;14.93;6.80;;;;;;;;;;10423051;28;20263;-70
2022/04/13 18:34:49;;;;;;;12.02;6.47;;;;;;;;;;10419088;28;20086;-70
2022/04/13 18:39:49;;;;;;;14.23;6.28;;;;;;;;;;10427808;28;20543;-71
2022/04/13 18:44:49;;;;;;;15.67;7.23;;;;;;;;;;10425355;28;20032;-69
2022/04/13 18:49:51;;;;;;;7.60;5.68;;;;;;;;;;10416479;28;20103;-69
2022/04/13 18:54:51;;;;;;;12.52;5.35;;;;;;;;;;10415374;28;20585;-73
2022/04/13 18:59:52;;;;;;;15.75;7.80;;;;;;;;;;10429749;28;20045;-70
2022/04/13 19:04:52;;;;;;;14.57;5.93;;;;;;;;;;10426597;28;20041;-70
2022/04/13 19:09:54;;;;;;;14.02;6.47;;;;;;;;;;10429572;28;20127;-74
2022/04/13 19:14:55;;;;;;;9.25;5.45;;;;;;;;;;10428966;28;20484;-70
2022/04/13 19:19:55;;;;;;;9.70;6.13;;;;;;;;;;10425487;28;20120;-70
2022/04/13 19:24:56;;;;;;;18.75;7.20;;;;;;;;;;10424631;28;20473;-70
2022/04/13 19:29:56;;;;;;;18.63;6.93;;;;;;;;;;10427743;28;20029;-69
2022/04/13 19:34:56;;;;;;;13.13;6.50;;;;;;;;;;10419078;28;20029;-68
2022/04/13 19:39:57;;;;;;;21.30;9.00;;;;;;;;;;10416396;28;20735;-73
2022/04/13 19:45:00;;;;;;;16.03;7.87;;;;;;;;;;10401250;28;20044;-69
2022/04/13 19:50:00;;;;;;;14.40;7.50;;;;;;;;;;10433555;28;20455;-71
2022/04/13 19:55:00;;;;;;;17.88;7.03;;;;;;;;;;10427642;28;20029;-70
2022/04/13 20:00:01;;;;;;;13.63;6.95;;;;;;;;;;10417079;28;20524;-70
2022/04/13 20:05:01;;;;;;;12.52;6.65;;;;;;;;;;10419291;28;20424;-72
2022/04/13 20:10:02;;;;;;;14.05;7.15;;;;;;;;;;10429924;28;20126;-69
2022/04/13 20:15:05;;;;;;;16.42;7.20;;;;;;;;;;10407298;28;20045;-69
2022/04/13 20:20:06;;;;;;;7.75;5.20;;;;;;;;;;10403621;28;20045;-73
2022/04/13 20:25:07;;;;;;;10.00;5.85;;;;;;;;;;10425086;28;20029;-70
2022/04/13 20:30:09;;;;;;;15.15;5.03;;;;;;;;;;10422652;28;20035;-75
2022/04/13 20:35:09;;;;;;;12.57;4.78;;;;;;;;;;10425353;28;20031;-71
2022/04/13 20:40:09;;;;;;;16.00;5.80;;;;;;;;;;10401681;28;20037;-72
2022/04/13 20:45:10;;;;;;;9.07;5.50;;;;;;;;;;10413758;28;20033;-70
2022/04/13 20:50:10;;;;;;;6.03;4.13;;;;;;;;;;10427175;28;20279;-70
2022/04/13 20:55:10;;;;;;;8.82;4.25;;;;;;;;;;10429878;28;20359;-70
2022/04/13 21:00:11;;;;;;;6.33;3.83;;;;;;;;;;10385831;28;20514;-72
2022/04/13 21:05:11;;;;;;;8.50;4.00;;;;;;;;;;10373420;28;20284;-75
2022/04/13 21:10:11;;;;;;;12.63;4.10;;;;;;;;;;10375038;28;20691;-74
2022/04/13 21:15:12;;;;;;;7.95;3.85;;;;;;;;;;10379090;28;20095;-72
2022/04/13 21:20:12;;;;;;;7.68;3.60;;;;;;;;;;10380431;28;20040;-75
2022/04/13 21:25:12;;;;;;;4.63;3.78;;;;;;;;;;10385187;28;20122;-72
2022/04/13 21:30:13;;;;;;;6.10;3.85;;;;;;;;;;10388047;28;20128;-72
2022/04/13 21:35:13;;;;;;;6.82;2.63;;;;;;;;;;10389095;28;20025;-74
2022/04/13 21:40:13;;;;;;;8.98;3.22;;;;;;;;;;10387954;28;20420;-73
2022/04/13 21:45:14;;;;;;;6.30;3.50;;;;;;;;;;10391629;28;20037;-72
2022/04/13 21:50:14;;;;;;;2.88;2.63;;;;;;;;;;10391118;28;20087;-73
2022/04/13 21:55:15;;;;;;;5.88;3.05;;;;;;;;;;10388972;28;20045;-72
2022/04/13 22:00:30;;;;;;;4.88;3.13;;;;;;;;;;10389705;28;20060;-73
2022/04/13 22:05:31;;;;;;;7.90;3.17;;;;;;;;;;10391422;28;20439;-76
2022/04/13 22:10:31;;;;;;;6.47;3.75;;;;;;;;;;10389946;28;20028;-73
2022/04/13 22:15:32;;;;;;;8.23;3.80;;;;;;;;;;10396070;28;20037;-71
2022/04/13 22:20:32;;;;;;;6.45;4.28;;;;;;;;;;10392710;28;20029;-74
2022/04/13 22:25:32;;;;;;;6.20;3.88;;;;;;;;;;10400744;28;20025;-72
2022/04/13 22:30:33;;;;;;;5.73;3.47;;;;;;;;;;10408337;28;20036;-70
2022/04/13 22:35:33;;;;;;;10.25;5.18;;;;;;;;;;10402254;28;20025;-73
2022/04/13 22:40:34;;;;;;;5.82;3.80;;;;;;;;;;10410261;28;20033;-70
2022/04/13 22:45:34;;;;;;;6.50;4.37;;;;;;;;;;10406828;28;20477;-74
2022/04/13 22:50:35;;;;;;;6.35;4.00;;;;;;;;;;10369721;28;20033;-74
2022/04/13 22:55:35;;;;;;;9.73;4.33;;;;;;;;;;10383588;28;20139;-69
2022/04/13 23:00:35;;;;;;;5.65;3.65;;;;;;;;;;10382599;28;20038;-75
2022/04/13 23:05:36;;;;;;;5.65;3.95;;;;;;;;;;10436804;28;20502;-74
2022/04/13 23:10:36;;;;;;;5.20;3.72;;;;;;;;;;10448784;28;20559;-71
2022/04/13 23:15:36;;;;;;;8.15;5.15;;;;;;;;;;10448767;28;20048;-74
2022/04/13 23:20:37;;;;;;;9.07;5.67;;;;;;;;;;10448339;28;20063;-70
2022/04/13 23:25:37;;;;;;;11.13;5.33;;;;;;;;;;10447180;28;20033;-71
2022/04/13 23:30:37;;;;;;;9.82;5.10;;;;;;;;;;10447776;28;20033;-75
2022/04/13 23:35:37;;;;;;;11.40;3.93;;;;;;;;;;10447718;28;20028;-70
2022/04/13 23:40:38;;;;;;;8.60;5.20;;;;;;;;;;10448997;28;20090;-72
2022/04/13 23:45:38;;;;;;;6.53;4.35;;;;;;;;;;10410912;28;20029;-70
2022/04/13 23:50:38;;;;;;;6.63;4.53;;;;;;;;;;10364668;28;20444;-73
2022/04/13 23:55:39;;;;;;;6.53;5.43;;;;;;;;;;10380972;28;20455;-69
